Reedurban, Ohio
Current Conditions -  °F | °C
As of 5:51 PM on Wednesday 26 Nov 2014 (Local Time) from KCAK Reporting Station
Overcast Overcast  
Wind Chill: 30°   Ceiling: 3200
Heat Index: 36°   Visibility: 10mi
Dew Point: 25°   Wind: 7mph
Humidity: 64%   Direction: 350°N
Pressure: 30.02"   Gusts: NA
Location:  40.7898°N, 81.4236°W
Report Text: KCAK 262251Z 35006KT 10SM OVC032 02/M04 A3002 RMK AO2 SLP176 T00221039
Loading
Personal Weather Stations






























Interactive Weather Map New forecast layout! Learn more

10-Day Weather Forecast

Advertisements
Track Severe Weather on mobile